sensor_id;sensor_type;location;lat;lon;timestamp;P1;durP1;ratioP1;P2;durP2;ratioP2
19231;SDS011;9750;48.730;10.294;2024-01-11T00:02:13;40.77;;;26.73;;
19231;SDS011;9750;48.730;10.294;2024-01-11T00:04:41;37.80;;;26.43;;
19231;SDS011;9750;48.730;10.294;2024-01-11T00:07:09;40.80;;;26.27;;
19231;SDS011;9750;48.730;10.294;2024-01-11T00:09:40;40.93;;;26.50;;
19231;SDS011;9750;48.730;10.294;2024-01-11T00:12:09;42.77;;;26.97;;
19231;SDS011;9750;48.730;10.294;2024-01-11T00:14:36;41.70;;;26.07;;
19231;SDS011;9750;48.730;10.294;2024-01-11T00:17:03;37.93;;;25.60;;
19231;SDS011;9750;48.730;10.294;2024-01-11T00:19:31;37.63;;;25.00;;
19231;SDS011;9750;48.730;10.294;2024-01-11T00:21:58;44.00;;;26.83;;
19231;SDS011;9750;48.730;10.294;2024-01-11T00:27:10;39.33;;;26.43;;
19231;SDS011;9750;48.730;10.294;2024-01-11T00:29:38;42.20;;;26.27;;
19231;SDS011;9750;48.730;10.294;2024-01-11T00:32:05;41.13;;;26.30;;
19231;SDS011;9750;48.730;10.294;2024-01-11T00:34:32;39.03;;;24.87;;
19231;SDS011;9750;48.730;10.294;2024-01-11T00:37:01;41.17;;;25.67;;
19231;SDS011;9750;48.730;10.294;2024-01-11T00:39:28;41.47;;;25.87;;
19231;SDS011;9750;48.730;10.294;2024-01-11T00:41:57;41.43;;;26.70;;
19231;SDS011;9750;48.730;10.294;2024-01-11T00:44:24;45.50;;;27.73;;
19231;SDS011;9750;48.730;10.294;2024-01-11T00:46:51;41.53;;;26.93;;
19231;SDS011;9750;48.730;10.294;2024-01-11T00:49:20;37.70;;;24.77;;
19231;SDS011;9750;48.730;10.294;2024-01-11T00:51:47;46.37;;;28.40;;
19231;SDS011;9750;48.730;10.294;2024-01-11T00:54:14;45.17;;;27.87;;
19231;SDS011;9750;48.730;10.294;2024-01-11T00:56:41;45.63;;;28.40;;
19231;SDS011;9750;48.730;10.294;2024-01-11T00:59:10;45.57;;;29.33;;
19231;SDS011;9750;48.730;10.294;2024-01-11T01:01:37;49.43;;;28.47;;
19231;SDS011;9750;48.730;10.294;2024-01-11T01:04:17;44.00;;;28.03;;
19231;SDS011;9750;48.730;10.294;2024-01-11T01:06:44;47.83;;;28.53;;
19231;SDS011;9750;48.730;10.294;2024-01-11T01:09:12;44.27;;;27.40;;
19231;SDS011;9750;48.730;10.294;2024-01-11T01:11:40;50.67;;;30.13;;
19231;SDS011;9750;48.730;10.294;2024-01-11T01:14:07;49.77;;;30.23;;
19231;SDS011;9750;48.730;10.294;2024-01-11T01:16:36;50.33;;;29.63;;
19231;SDS011;9750;48.730;10.294;2024-01-11T01:19:03;47.90;;;29.23;;
19231;SDS011;9750;48.730;10.294;2024-01-11T01:21:30;48.00;;;29.33;;
19231;SDS011;9750;48.730;10.294;2024-01-11T01:23:58;49.80;;;29.77;;
19231;SDS011;9750;48.730;10.294;2024-01-11T01:26:25;42.77;;;27.57;;
19231;SDS011;9750;48.730;10.294;2024-01-11T01:28:52;47.47;;;30.03;;
19231;SDS011;9750;48.730;10.294;2024-01-11T01:31:20;44.67;;;29.80;;
19231;SDS011;9750;48.730;10.294;2024-01-11T01:33:49;43.47;;;28.73;;
19231;SDS011;9750;48.730;10.294;2024-01-11T01:36:17;47.23;;;29.03;;
19231;SDS011;9750;48.730;10.294;2024-01-11T01:38:44;44.47;;;29.10;;
19231;SDS011;9750;48.730;10.294;2024-01-11T01:41:12;47.97;;;30.60;;
19231;SDS011;9750;48.730;10.294;2024-01-11T01:43:39;58.63;;;34.13;;
19231;SDS011;9750;48.730;10.294;2024-01-11T01:49:29;63.40;;;35.30;;
19231;SDS011;9750;48.730;10.294;2024-01-11T01:51:56;69.67;;;38.57;;
19231;SDS011;9750;48.730;10.294;2024-01-11T01:54:24;69.87;;;38.80;;
19231;SDS011;9750;48.730;10.294;2024-01-11T01:56:52;61.43;;;33.47;;
19231;SDS011;9750;48.730;10.294;2024-01-11T01:59:20;57.90;;;33.47;;
19231;SDS011;9750;48.730;10.294;2024-01-11T02:01:49;48.50;;;31.03;;
19231;SDS011;9750;48.730;10.294;2024-01-11T02:04:16;49.30;;;31.10;;
19231;SDS011;9750;48.730;10.294;2024-01-11T02:06:45;50.40;;;31.63;;
19231;SDS011;9750;48.730;10.294;2024-01-11T02:09:13;49.97;;;31.83;;
19231;SDS011;9750;48.730;10.294;2024-01-11T02:11:42;47.70;;;30.20;;
19231;SDS011;9750;48.730;10.294;2024-01-11T02:14:11;46.63;;;29.43;;
19231;SDS011;9750;48.730;10.294;2024-01-11T02:16:38;49.77;;;30.20;;
19231;SDS011;9750;48.730;10.294;2024-01-11T02:19:05;46.60;;;30.13;;
19231;SDS011;9750;48.730;10.294;2024-01-11T02:21:36;44.73;;;28.00;;
19231;SDS011;9750;48.730;10.294;2024-01-11T02:24:05;49.13;;;30.00;;
19231;SDS011;9750;48.730;10.294;2024-01-11T02:26:33;42.30;;;27.63;;
19231;SDS011;9750;48.730;10.294;2024-01-11T02:29:00;45.53;;;28.00;;
19231;SDS011;9750;48.730;10.294;2024-01-11T02:31:28;38.10;;;26.03;;
19231;SDS011;9750;48.730;10.294;2024-01-11T02:33:55;41.13;;;26.83;;
19231;SDS011;9750;48.730;10.294;2024-01-11T02:36:23;40.17;;;25.47;;
19231;SDS011;9750;48.730;10.294;2024-01-11T02:38:52;38.13;;;26.27;;
19231;SDS011;9750;48.730;10.294;2024-01-11T02:41:22;43.20;;;27.60;;
19231;SDS011;9750;48.730;10.294;2024-01-11T02:43:50;40.87;;;27.20;;
19231;SDS011;9750;48.730;10.294;2024-01-11T02:49:41;35.17;;;25.47;;
19231;SDS011;9750;48.730;10.294;2024-01-11T02:52:08;42.27;;;26.13;;
19231;SDS011;9750;48.730;10.294;2024-01-11T02:54:35;39.00;;;26.50;;
19231;SDS011;9750;48.730;10.294;2024-01-11T02:57:04;37.43;;;25.37;;
19231;SDS011;9750;48.730;10.294;2024-01-11T02:59:31;39.83;;;26.37;;
19231;SDS011;9750;48.730;10.294;2024-01-11T03:01:59;38.63;;;26.30;;
19231;SDS011;9750;48.730;10.294;2024-01-11T03:04:26;40.00;;;25.10;;
19231;SDS011;9750;48.730;10.294;2024-01-11T03:06:53;36.63;;;24.93;;
19231;SDS011;9750;48.730;10.294;2024-01-11T03:09:20;42.57;;;26.83;;
19231;SDS011;9750;48.730;10.294;2024-01-11T03:11:48;40.37;;;26.83;;
19231;SDS011;9750;48.730;10.294;2024-01-11T03:14:16;36.40;;;25.17;;
19231;SDS011;9750;48.730;10.294;2024-01-11T03:16:44;37.77;;;24.80;;
19231;SDS011;9750;48.730;10.294;2024-01-11T03:19:11;34.63;;;24.00;;
19231;SDS011;9750;48.730;10.294;2024-01-11T03:21:40;36.00;;;25.77;;
19231;SDS011;9750;48.730;10.294;2024-01-11T03:24:08;46.97;;;26.30;;
19231;SDS011;9750;48.730;10.294;2024-01-11T03:26:35;39.57;;;25.13;;
19231;SDS011;9750;48.730;10.294;2024-01-11T03:29:03;36.87;;;25.03;;
19231;SDS011;9750;48.730;10.294;2024-01-11T03:31:32;37.77;;;24.70;;
19231;SDS011;9750;48.730;10.294;2024-01-11T03:33:59;39.03;;;26.30;;
19231;SDS011;9750;48.730;10.294;2024-01-11T03:36:26;37.73;;;23.77;;
19231;SDS011;9750;48.730;10.294;2024-01-11T03:38:53;39.07;;;25.67;;
19231;SDS011;9750;48.730;10.294;2024-01-11T03:41:21;37.80;;;25.77;;
19231;SDS011;9750;48.730;10.294;2024-01-11T03:43:49;43.70;;;27.60;;
19231;SDS011;9750;48.730;10.294;2024-01-11T03:46:16;40.40;;;25.40;;
19231;SDS011;9750;48.730;10.294;2024-01-11T03:48:45;40.77;;;25.73;;
19231;SDS011;9750;48.730;10.294;2024-01-11T03:51:13;37.73;;;25.20;;
19231;SDS011;9750;48.730;10.294;2024-01-11T03:53:40;42.57;;;26.00;;
19231;SDS011;9750;48.730;10.294;2024-01-11T03:56:07;37.67;;;24.93;;
19231;SDS011;9750;48.730;10.294;2024-01-11T03:58:35;37.50;;;25.90;;
19231;SDS011;9750;48.730;10.294;2024-01-11T04:01:04;40.40;;;25.70;;
19231;SDS011;9750;48.730;10.294;2024-01-11T04:03:33;42.50;;;26.67;;
19231;SDS011;9750;48.730;10.294;2024-01-11T04:06:01;40.07;;;26.20;;
19231;SDS011;9750;48.730;10.294;2024-01-11T04:08:29;39.13;;;26.37;;
19231;SDS011;9750;48.730;10.294;2024-01-11T04:10:56;38.23;;;24.93;;
19231;SDS011;9750;48.730;10.294;2024-01-11T04:13:23;40.07;;;26.87;;
19231;SDS011;9750;48.730;10.294;2024-01-11T04:15:51;39.57;;;26.07;;
19231;SDS011;9750;48.730;10.294;2024-01-11T04:18:18;37.97;;;25.03;;
19231;SDS011;9750;48.730;10.294;2024-01-11T04:20:45;39.40;;;26.23;;
19231;SDS011;9750;48.730;10.294;2024-01-11T04:23:14;40.03;;;25.47;;
19231;SDS011;9750;48.730;10.294;2024-01-11T04:25:41;39.27;;;27.13;;
19231;SDS011;9750;48.730;10.294;2024-01-11T04:28:08;37.23;;;24.60;;
19231;SDS011;9750;48.730;10.294;2024-01-11T04:30:36;40.30;;;25.10;;
19231;SDS011;9750;48.730;10.294;2024-01-11T04:33:03;40.53;;;25.67;;
19231;SDS011;9750;48.730;10.294;2024-01-11T04:38:53;40.37;;;25.53;;
19231;SDS011;9750;48.730;10.294;2024-01-11T04:41:21;43.83;;;27.20;;
19231;SDS011;9750;48.730;10.294;2024-01-11T04:43:48;41.00;;;25.77;;
19231;SDS011;9750;48.730;10.294;2024-01-11T04:49:27;40.10;;;24.90;;
19231;SDS011;9750;48.730;10.294;2024-01-11T04:51:55;39.10;;;25.13;;
19231;SDS011;9750;48.730;10.294;2024-01-11T04:54:24;41.50;;;27.27;;
19231;SDS011;9750;48.730;10.294;2024-01-11T04:56:51;42.20;;;26.67;;
19231;SDS011;9750;48.730;10.294;2024-01-11T04:59:18;42.40;;;26.27;;
19231;SDS011;9750;48.730;10.294;2024-01-11T05:01:46;44.40;;;27.20;;
19231;SDS011;9750;48.730;10.294;2024-01-11T05:04:13;39.80;;;27.33;;
19231;SDS011;9750;48.730;10.294;2024-01-11T05:06:40;39.63;;;26.63;;
19231;SDS011;9750;48.730;10.294;2024-01-11T05:09:07;38.50;;;24.87;;
19231;SDS011;9750;48.730;10.294;2024-01-11T05:11:36;38.57;;;26.83;;
19231;SDS011;9750;48.730;10.294;2024-01-11T05:14:03;41.70;;;27.40;;
19231;SDS011;9750;48.730;10.294;2024-01-11T05:16:31;44.07;;;27.40;;
19231;SDS011;9750;48.730;10.294;2024-01-11T05:19:00;40.33;;;27.17;;
19231;SDS011;9750;48.730;10.294;2024-01-11T05:21:27;41.87;;;27.50;;
19231;SDS011;9750;48.730;10.294;2024-01-11T05:23:55;37.97;;;26.20;;
19231;SDS011;9750;48.730;10.294;2024-01-11T05:26:22;39.43;;;26.37;;
19231;SDS011;9750;48.730;10.294;2024-01-11T05:28:51;40.37;;;27.33;;
19231;SDS011;9750;48.730;10.294;2024-01-11T05:31:18;42.13;;;26.73;;
19231;SDS011;9750;48.730;10.294;2024-01-11T05:33:46;39.67;;;27.40;;
19231;SDS011;9750;48.730;10.294;2024-01-11T05:36:13;40.90;;;30.00;;
19231;SDS011;9750;48.730;10.294;2024-01-11T05:38:40;44.73;;;27.13;;
19231;SDS011;9750;48.730;10.294;2024-01-11T05:41:08;40.17;;;26.90;;
19231;SDS011;9750;48.730;10.294;2024-01-11T05:43:37;40.07;;;25.70;;
19231;SDS011;9750;48.730;10.294;2024-01-11T05:46:06;39.30;;;25.03;;
19231;SDS011;9750;48.730;10.294;2024-01-11T05:48:33;37.40;;;23.53;;
19231;SDS011;9750;48.730;10.294;2024-01-11T05:51:01;39.23;;;24.37;;
19231;SDS011;9750;48.730;10.294;2024-01-11T05:53:28;38.30;;;24.30;;
19231;SDS011;9750;48.730;10.294;2024-01-11T05:59:20;37.43;;;24.00;;
19231;SDS011;9750;48.730;10.294;2024-01-11T06:01:49;42.13;;;25.83;;
19231;SDS011;9750;48.730;10.294;2024-01-11T06:04:16;40.43;;;26.27;;
19231;SDS011;9750;48.730;10.294;2024-01-11T06:06:43;47.73;;;29.20;;
19231;SDS011;9750;48.730;10.294;2024-01-11T06:09:11;51.53;;;33.70;;
19231;SDS011;9750;48.730;10.294;2024-01-11T06:11:38;58.70;;;34.40;;
19231;SDS011;9750;48.730;10.294;2024-01-11T06:14:05;54.30;;;32.63;;
19231;SDS011;9750;48.730;10.294;2024-01-11T06:16:33;43.80;;;27.70;;
19231;SDS011;9750;48.730;10.294;2024-01-11T06:19:02;42.47;;;27.30;;
19231;SDS011;9750;48.730;10.294;2024-01-11T06:21:29;42.67;;;28.17;;
19231;SDS011;9750;48.730;10.294;2024-01-11T06:23:57;44.97;;;28.50;;
19231;SDS011;9750;48.730;10.294;2024-01-11T06:26:24;39.67;;;25.60;;
19231;SDS011;9750;48.730;10.294;2024-01-11T06:28:51;41.17;;;25.27;;
19231;SDS011;9750;48.730;10.294;2024-01-11T06:31:18;37.23;;;25.13;;
19231;SDS011;9750;48.730;10.294;2024-01-11T06:33:46;37.73;;;26.07;;
19231;SDS011;9750;48.730;10.294;2024-01-11T06:39:12;39.57;;;25.90;;
19231;SDS011;9750;48.730;10.294;2024-01-11T06:41:40;42.97;;;27.60;;
19231;SDS011;9750;48.730;10.294;2024-01-11T06:44:07;42.03;;;27.57;;
19231;SDS011;9750;48.730;10.294;2024-01-11T06:46:34;39.80;;;25.43;;
19231;SDS011;9750;48.730;10.294;2024-01-11T06:49:04;37.80;;;25.37;;
19231;SDS011;9750;48.730;10.294;2024-01-11T06:51:31;39.93;;;26.17;;
19231;SDS011;9750;48.730;10.294;2024-01-11T06:54:00;40.13;;;26.77;;
19231;SDS011;9750;48.730;10.294;2024-01-11T06:56:27;39.33;;;26.20;;
19231;SDS011;9750;48.730;10.294;2024-01-11T06:58:55;37.77;;;25.00;;
19231;SDS011;9750;48.730;10.294;2024-01-11T07:01:22;41.87;;;27.27;;
19231;SDS011;9750;48.730;10.294;2024-01-11T07:03:49;40.10;;;26.47;;
19231;SDS011;9750;48.730;10.294;2024-01-11T07:06:17;40.07;;;27.70;;
19231;SDS011;9750;48.730;10.294;2024-01-11T07:08:44;41.93;;;27.13;;
19231;SDS011;9750;48.730;10.294;2024-01-11T07:11:13;40.97;;;25.40;;
19231;SDS011;9750;48.730;10.294;2024-01-11T07:13:40;39.60;;;27.20;;
19231;SDS011;9750;48.730;10.294;2024-01-11T07:16:08;56.20;;;35.23;;
19231;SDS011;9750;48.730;10.294;2024-01-11T07:18:35;47.50;;;31.20;;
19231;SDS011;9750;48.730;10.294;2024-01-11T07:21:03;51.00;;;31.87;;
19231;SDS011;9750;48.730;10.294;2024-01-11T07:23:30;49.77;;;33.40;;
19231;SDS011;9750;48.730;10.294;2024-01-11T07:25:58;49.60;;;33.97;;
19231;SDS011;9750;48.730;10.294;2024-01-11T07:28:26;53.50;;;34.97;;
19231;SDS011;9750;48.730;10.294;2024-01-11T07:30:53;48.10;;;32.47;;
19231;SDS011;9750;48.730;10.294;2024-01-11T07:33:21;50.43;;;33.73;;
19231;SDS011;9750;48.730;10.294;2024-01-11T07:38:32;43.43;;;29.27;;
19231;SDS011;9750;48.730;10.294;2024-01-11T07:41:00;44.07;;;29.50;;
19231;SDS011;9750;48.730;10.294;2024-01-11T07:43:28;44.13;;;28.70;;
19231;SDS011;9750;48.730;10.294;2024-01-11T07:45:57;40.97;;;26.23;;
19231;SDS011;9750;48.730;10.294;2024-01-11T07:48:24;38.10;;;26.10;;
19231;SDS011;9750;48.730;10.294;2024-01-11T07:50:52;45.17;;;28.93;;
19231;SDS011;9750;48.730;10.294;2024-01-11T07:53:19;40.27;;;28.70;;
19231;SDS011;9750;48.730;10.294;2024-01-11T07:55:46;46.10;;;30.23;;
19231;SDS011;9750;48.730;10.294;2024-01-11T07:58:14;47.07;;;31.83;;
19231;SDS011;9750;48.730;10.294;2024-01-11T08:00:43;52.13;;;33.70;;
19231;SDS011;9750;48.730;10.294;2024-01-11T08:03:10;46.63;;;31.53;;
19231;SDS011;9750;48.730;10.294;2024-01-11T08:08:59;54.53;;;35.47;;
19231;SDS011;9750;48.730;10.294;2024-01-11T08:11:28;56.27;;;38.63;;
19231;SDS011;9750;48.730;10.294;2024-01-11T08:13:56;56.27;;;39.77;;
19231;SDS011;9750;48.730;10.294;2024-01-11T08:16:25;56.27;;;39.87;;
19231;SDS011;9750;48.730;10.294;2024-01-11T08:18:53;54.23;;;38.40;;
19231;SDS011;9750;48.730;10.294;2024-01-11T08:21:20;61.40;;;41.10;;
19231;SDS011;9750;48.730;10.294;2024-01-11T08:23:47;58.53;;;39.70;;
19231;SDS011;9750;48.730;10.294;2024-01-11T08:26:17;58.73;;;38.13;;
19231;SDS011;9750;48.730;10.294;2024-01-11T08:28:44;57.97;;;36.50;;
19231;SDS011;9750;48.730;10.294;2024-01-11T08:31:12;56.83;;;38.77;;
19231;SDS011;9750;48.730;10.294;2024-01-11T08:33:41;46.87;;;32.63;;
19231;SDS011;9750;48.730;10.294;2024-01-11T08:36:08;41.27;;;29.53;;
19231;SDS011;9750;48.730;10.294;2024-01-11T08:38:36;36.97;;;26.17;;
19231;SDS011;9750;48.730;10.294;2024-01-11T08:41:04;42.60;;;28.83;;
19231;SDS011;9750;48.730;10.294;2024-01-11T08:43:31;43.80;;;28.87;;
19231;SDS011;9750;48.730;10.294;2024-01-11T08:45:59;44.23;;;29.53;;
19231;SDS011;9750;48.730;10.294;2024-01-11T08:48:27;46.23;;;30.40;;
19231;SDS011;9750;48.730;10.294;2024-01-11T08:50:56;41.70;;;29.80;;
19231;SDS011;9750;48.730;10.294;2024-01-11T08:53:23;40.60;;;28.17;;
19231;SDS011;9750;48.730;10.294;2024-01-11T08:55:51;43.33;;;29.80;;
19231;SDS011;9750;48.730;10.294;2024-01-11T08:58:18;44.97;;;29.93;;
19231;SDS011;9750;48.730;10.294;2024-01-11T09:00:45;47.37;;;31.00;;
19231;SDS011;9750;48.730;10.294;2024-01-11T09:03:13;46.17;;;30.33;;
19231;SDS011;9750;48.730;10.294;2024-01-11T09:05:42;49.50;;;34.43;;
19231;SDS011;9750;48.730;10.294;2024-01-11T09:08:10;46.73;;;34.20;;
19231;SDS011;9750;48.730;10.294;2024-01-11T09:10:38;43.83;;;30.93;;
19231;SDS011;9750;48.730;10.294;2024-01-11T09:13:06;45.43;;;32.37;;
19231;SDS011;9750;48.730;10.294;2024-01-11T09:15:41;47.63;;;34.47;;
19231;SDS011;9750;48.730;10.294;2024-01-11T09:18:08;49.47;;;33.10;;
19231;SDS011;9750;48.730;10.294;2024-01-11T09:20:35;45.30;;;31.30;;
19231;SDS011;9750;48.730;10.294;2024-01-11T09:23:03;44.60;;;31.10;;
19231;SDS011;9750;48.730;10.294;2024-01-11T09:25:31;43.73;;;30.60;;
19231;SDS011;9750;48.730;10.294;2024-01-11T09:27:59;40.57;;;29.13;;
19231;SDS011;9750;48.730;10.294;2024-01-11T09:30:26;43.10;;;30.53;;
19231;SDS011;9750;48.730;10.294;2024-01-11T09:32:53;41.07;;;29.93;;
19231;SDS011;9750;48.730;10.294;2024-01-11T09:35:21;41.23;;;28.13;;
19231;SDS011;9750;48.730;10.294;2024-01-11T09:37:48;39.90;;;28.13;;
19231;SDS011;9750;48.730;10.294;2024-01-11T09:40:17;41.33;;;28.53;;
19231;SDS011;9750;48.730;10.294;2024-01-11T09:42:46;41.87;;;28.30;;
19231;SDS011;9750;48.730;10.294;2024-01-11T09:45:14;42.43;;;29.57;;
19231;SDS011;9750;48.730;10.294;2024-01-11T09:47:43;41.30;;;28.80;;
19231;SDS011;9750;48.730;10.294;2024-01-11T09:50:11;41.83;;;29.10;;
19231;SDS011;9750;48.730;10.294;2024-01-11T09:52:43;42.70;;;29.27;;
19231;SDS011;9750;48.730;10.294;2024-01-11T09:55:13;42.67;;;27.77;;
19231;SDS011;9750;48.730;10.294;2024-01-11T09:57:43;42.63;;;28.77;;
19231;SDS011;9750;48.730;10.294;2024-01-11T10:00:13;40.20;;;28.17;;
19231;SDS011;9750;48.730;10.294;2024-01-11T10:02:43;44.13;;;28.33;;
19231;SDS011;9750;48.730;10.294;2024-01-11T10:05:11;39.53;;;28.50;;
19231;SDS011;9750;48.730;10.294;2024-01-11T10:07:40;38.70;;;26.80;;
19231;SDS011;9750;48.730;10.294;2024-01-11T10:10:07;39.73;;;27.90;;
19231;SDS011;9750;48.730;10.294;2024-01-11T10:12:35;42.13;;;29.37;;
19231;SDS011;9750;48.730;10.294;2024-01-11T10:15:08;41.27;;;30.13;;
19231;SDS011;9750;48.730;10.294;2024-01-11T10:17:36;42.33;;;30.57;;
19231;SDS011;9750;48.730;10.294;2024-01-11T10:20:07;46.20;;;32.30;;
19231;SDS011;9750;48.730;10.294;2024-01-11T10:22:35;47.20;;;33.30;;
19231;SDS011;9750;48.730;10.294;2024-01-11T10:25:09;45.07;;;30.87;;
19231;SDS011;9750;48.730;10.294;2024-01-11T10:27:37;44.93;;;30.07;;
19231;SDS011;9750;48.730;10.294;2024-01-11T10:30:09;44.73;;;30.83;;
19231;SDS011;9750;48.730;10.294;2024-01-11T10:32:38;46.00;;;32.93;;
19231;SDS011;9750;48.730;10.294;2024-01-11T10:35:05;50.67;;;34.33;;
19231;SDS011;9750;48.730;10.294;2024-01-11T10:37:33;51.73;;;35.53;;
19231;SDS011;9750;48.730;10.294;2024-01-11T10:40:02;45.97;;;34.17;;
19231;SDS011;9750;48.730;10.294;2024-01-11T10:42:35;46.43;;;32.17;;
19231;SDS011;9750;48.730;10.294;2024-01-11T10:45:04;40.20;;;29.37;;
19231;SDS011;9750;48.730;10.294;2024-01-11T10:47:41;38.57;;;28.80;;
19231;SDS011;9750;48.730;10.294;2024-01-11T10:50:17;42.77;;;29.77;;
19231;SDS011;9750;48.730;10.294;2024-01-11T10:52:48;54.07;;;35.17;;
19231;SDS011;9750;48.730;10.294;2024-01-11T10:58:24;53.43;;;35.50;;
19231;SDS011;9750;48.730;10.294;2024-01-11T11:00:54;40.20;;;29.57;;
19231;SDS011;9750;48.730;10.294;2024-01-11T11:03:22;41.43;;;29.60;;
19231;SDS011;9750;48.730;10.294;2024-01-11T11:05:52;49.07;;;34.87;;
19231;SDS011;9750;48.730;10.294;2024-01-11T11:08:20;44.10;;;31.47;;
19231;SDS011;9750;48.730;10.294;2024-01-11T11:10:54;47.33;;;31.93;;
19231;SDS011;9750;48.730;10.294;2024-01-11T11:13:22;39.20;;;29.17;;
19231;SDS011;9750;48.730;10.294;2024-01-11T11:15:50;41.77;;;29.93;;
19231;SDS011;9750;48.730;10.294;2024-01-11T11:18:19;41.97;;;30.63;;
19231;SDS011;9750;48.730;10.294;2024-01-11T11:23:52;42.33;;;30.27;;
19231;SDS011;9750;48.730;10.294;2024-01-11T11:26:21;42.23;;;29.90;;
19231;SDS011;9750;48.730;10.294;2024-01-11T11:28:52;38.17;;;28.60;;
19231;SDS011;9750;48.730;10.294;2024-01-11T11:31:34;42.37;;;29.10;;
19231;SDS011;9750;48.730;10.294;2024-01-11T11:34:04;43.13;;;28.97;;
19231;SDS011;9750;48.730;10.294;2024-01-11T11:36:32;42.13;;;29.37;;
19231;SDS011;9750;48.730;10.294;2024-01-11T11:39:01;41.50;;;29.90;;
19231;SDS011;9750;48.730;10.294;2024-01-11T11:41:30;40.93;;;30.83;;
19231;SDS011;9750;48.730;10.294;2024-01-11T11:44:00;49.80;;;34.93;;
19231;SDS011;9750;48.730;10.294;2024-01-11T11:46:28;39.93;;;29.27;;
19231;SDS011;9750;48.730;10.294;2024-01-11T11:48:56;49.43;;;32.83;;
19231;SDS011;9750;48.730;10.294;2024-01-11T11:51:26;45.40;;;32.83;;
19231;SDS011;9750;48.730;10.294;2024-01-11T11:53:54;49.47;;;32.60;;
19231;SDS011;9750;48.730;10.294;2024-01-11T11:56:22;38.67;;;28.57;;
19231;SDS011;9750;48.730;10.294;2024-01-11T11:58:49;46.53;;;29.83;;
19231;SDS011;9750;48.730;10.294;2024-01-11T12:01:18;35.20;;;26.47;;
19231;SDS011;9750;48.730;10.294;2024-01-11T12:03:46;45.17;;;30.10;;
19231;SDS011;9750;48.730;10.294;2024-01-11T12:06:15;37.03;;;26.30;;
19231;SDS011;9750;48.730;10.294;2024-01-11T12:08:45;38.00;;;26.97;;
19231;SDS011;9750;48.730;10.294;2024-01-11T12:11:14;51.50;;;33.73;;
19231;SDS011;9750;48.730;10.294;2024-01-11T12:13:42;40.97;;;29.67;;
19231;SDS011;9750;48.730;10.294;2024-01-11T12:16:10;53.40;;;34.17;;
19231;SDS011;9750;48.730;10.294;2024-01-11T12:18:38;36.13;;;27.30;;
19231;SDS011;9750;48.730;10.294;2024-01-11T12:21:06;46.83;;;30.73;;
19231;SDS011;9750;48.730;10.294;2024-01-11T12:23:33;40.00;;;26.87;;
19231;SDS011;9750;48.730;10.294;2024-01-11T12:29:16;44.70;;;30.00;;
19231;SDS011;9750;48.730;10.294;2024-01-11T12:31:44;31.40;;;23.20;;
19231;SDS011;9750;48.730;10.294;2024-01-11T12:34:11;41.00;;;28.00;;
19231;SDS011;9750;48.730;10.294;2024-01-11T12:36:39;36.43;;;24.57;;
19231;SDS011;9750;48.730;10.294;2024-01-11T12:39:07;48.47;;;29.60;;
19231;SDS011;9750;48.730;10.294;2024-01-11T12:41:36;37.73;;;27.57;;
19231;SDS011;9750;48.730;10.294;2024-01-11T12:44:03;39.30;;;27.67;;
19231;SDS011;9750;48.730;10.294;2024-01-11T12:46:32;40.77;;;28.47;;
19231;SDS011;9750;48.730;10.294;2024-01-11T12:49:00;35.03;;;25.13;;
19231;SDS011;9750;48.730;10.294;2024-01-11T12:51:27;41.97;;;28.37;;
19231;SDS011;9750;48.730;10.294;2024-01-11T12:53:54;30.73;;;22.80;;
19231;SDS011;9750;48.730;10.294;2024-01-11T12:56:24;35.87;;;24.83;;
19231;SDS011;9750;48.730;10.294;2024-01-11T12:58:51;26.93;;;20.90;;
19231;SDS011;9750;48.730;10.294;2024-01-11T13:01:32;36.63;;;24.60;;
19231;SDS011;9750;48.730;10.294;2024-01-11T13:04:00;30.17;;;22.83;;
19231;SDS011;9750;48.730;10.294;2024-01-11T13:06:28;39.17;;;27.80;;
19231;SDS011;9750;48.730;10.294;2024-01-11T13:08:56;36.37;;;26.93;;
19231;SDS011;9750;48.730;10.294;2024-01-11T13:11:23;40.67;;;29.20;;
19231;SDS011;9750;48.730;10.294;2024-01-11T13:13:51;34.20;;;26.27;;
19231;SDS011;9750;48.730;10.294;2024-01-11T13:16:18;45.77;;;31.73;;
19231;SDS011;9750;48.730;10.294;2024-01-11T13:18:48;37.03;;;26.97;;
19231;SDS011;9750;48.730;10.294;2024-01-11T13:21:15;45.00;;;32.17;;
19231;SDS011;9750;48.730;10.294;2024-01-11T13:23:43;55.07;;;34.27;;
19231;SDS011;9750;48.730;10.294;2024-01-11T13:26:11;76.53;;;42.20;;
19231;SDS011;9750;48.730;10.294;2024-01-11T13:28:38;39.67;;;28.97;;
19231;SDS011;9750;48.730;10.294;2024-01-11T13:31:06;44.57;;;31.87;;
19231;SDS011;9750;48.730;10.294;2024-01-11T13:33:35;36.90;;;28.13;;
19231;SDS011;9750;48.730;10.294;2024-01-11T13:36:17;42.20;;;30.27;;
19231;SDS011;9750;48.730;10.294;2024-01-11T13:38:46;42.00;;;29.83;;
19231;SDS011;9750;48.730;10.294;2024-01-11T13:41:15;45.80;;;30.33;;
19231;SDS011;9750;48.730;10.294;2024-01-11T13:43:43;39.13;;;28.47;;
19231;SDS011;9750;48.730;10.294;2024-01-11T13:46:10;43.97;;;31.53;;
19231;SDS011;9750;48.730;10.294;2024-01-11T13:48:41;34.50;;;26.50;;
19231;SDS011;9750;48.730;10.294;2024-01-11T13:51:09;50.93;;;33.73;;
19231;SDS011;9750;48.730;10.294;2024-01-11T13:53:39;40.03;;;28.63;;
19231;SDS011;9750;48.730;10.294;2024-01-11T13:59:01;38.93;;;29.03;;
19231;SDS011;9750;48.730;10.294;2024-01-11T14:01:29;54.10;;;35.07;;
19231;SDS011;9750;48.730;10.294;2024-01-11T14:03:56;49.97;;;35.70;;
19231;SDS011;9750;48.730;10.294;2024-01-11T14:06:23;50.33;;;34.43;;
19231;SDS011;9750;48.730;10.294;2024-01-11T14:08:52;39.83;;;29.00;;
19231;SDS011;9750;48.730;10.294;2024-01-11T14:11:19;46.17;;;31.73;;
19231;SDS011;9750;48.730;10.294;2024-01-11T14:13:47;35.67;;;26.97;;
19231;SDS011;9750;48.730;10.294;2024-01-11T14:16:14;45.70;;;31.17;;
19231;SDS011;9750;48.730;10.294;2024-01-11T14:18:42;41.27;;;29.93;;
19231;SDS011;9750;48.730;10.294;2024-01-11T14:21:09;46.80;;;32.63;;
19231;SDS011;9750;48.730;10.294;2024-01-11T14:23:36;44.10;;;30.77;;
19231;SDS011;9750;48.730;10.294;2024-01-11T14:26:05;108.27;;;54.23;;
19231;SDS011;9750;48.730;10.294;2024-01-11T14:28:32;53.70;;;34.80;;
19231;SDS011;9750;48.730;10.294;2024-01-11T14:31:00;53.77;;;32.60;;
19231;SDS011;9750;48.730;10.294;2024-01-11T14:33:29;41.93;;;29.80;;
19231;SDS011;9750;48.730;10.294;2024-01-11T14:35:56;52.43;;;33.73;;
19231;SDS011;9750;48.730;10.294;2024-01-11T14:38:24;42.40;;;30.63;;
19231;SDS011;9750;48.730;10.294;2024-01-11T14:40:51;48.37;;;32.13;;
19231;SDS011;9750;48.730;10.294;2024-01-11T14:43:20;41.00;;;28.97;;
19231;SDS011;9750;48.730;10.294;2024-01-11T14:45:47;45.43;;;32.47;;
19231;SDS011;9750;48.730;10.294;2024-01-11T14:48:16;38.97;;;27.57;;
19231;SDS011;9750;48.730;10.294;2024-01-11T14:50:43;47.37;;;33.00;;
19231;SDS011;9750;48.730;10.294;2024-01-11T14:53:10;42.73;;;31.23;;
19231;SDS011;9750;48.730;10.294;2024-01-11T14:55:54;50.43;;;33.90;;
19231;SDS011;9750;48.730;10.294;2024-01-11T14:58:23;40.23;;;29.17;;
19231;SDS011;9750;48.730;10.294;2024-01-11T15:00:50;47.27;;;32.63;;
19231;SDS011;9750;48.730;10.294;2024-01-11T15:03:18;40.17;;;28.93;;
19231;SDS011;9750;48.730;10.294;2024-01-11T15:05:45;52.43;;;33.80;;
19231;SDS011;9750;48.730;10.294;2024-01-11T15:08:13;38.70;;;29.43;;